sensor_id;sensor_type;location;lat;lon;timestamp;P1;durP1;ratioP1;P2;durP2;ratioP2
64686;SDS011;51113;53.646;-113.674;2024-01-07T00:00:51;23.42;;;9.68;;
64686;SDS011;51113;53.646;-113.674;2024-01-07T00:03:20;16.90;;;7.00;;
64686;SDS011;51113;53.646;-113.674;2024-01-07T00:05:50;39.45;;;11.55;;
64686;SDS011;51113;53.646;-113.674;2024-01-07T00:08:19;18.27;;;8.18;;
64686;SDS011;51113;53.646;-113.674;2024-01-07T00:10:49;23.00;;;8.43;;
64686;SDS011;51113;53.646;-113.674;2024-01-07T00:13:20;29.13;;;8.98;;
64686;SDS011;51113;53.646;-113.674;2024-01-07T00:15:48;15.40;;;6.65;;
64686;SDS011;51113;53.646;-113.674;2024-01-07T00:18:17;20.40;;;7.75;;
64686;SDS011;51113;53.646;-113.674;2024-01-07T00:20:46;21.23;;;8.55;;
64686;SDS011;51113;53.646;-113.674;2024-01-07T00:23:15;22.33;;;8.27;;
64686;SDS011;51113;53.646;-113.674;2024-01-07T00:25:43;21.75;;;7.10;;
64686;SDS011;51113;53.646;-113.674;2024-01-07T00:28:12;31.25;;;11.00;;
64686;SDS011;51113;53.646;-113.674;2024-01-07T00:30:41;28.45;;;8.65;;
64686;SDS011;51113;53.646;-113.674;2024-01-07T00:33:10;16.23;;;6.65;;
64686;SDS011;51113;53.646;-113.674;2024-01-07T00:35:39;19.00;;;5.78;;
64686;SDS011;51113;53.646;-113.674;2024-01-07T00:38:07;16.90;;;7.20;;
64686;SDS011;51113;53.646;-113.674;2024-01-07T00:40:36;10.70;;;5.05;;
64686;SDS011;51113;53.646;-113.674;2024-01-07T00:43:06;15.18;;;6.88;;
64686;SDS011;51113;53.646;-113.674;2024-01-07T00:45:34;13.20;;;6.20;;
64686;SDS011;51113;53.646;-113.674;2024-01-07T00:48:03;11.90;;;5.65;;
64686;SDS011;51113;53.646;-113.674;2024-01-07T00:50:33;9.85;;;5.03;;
64686;SDS011;51113;53.646;-113.674;2024-01-07T00:53:01;11.15;;;5.18;;
64686;SDS011;51113;53.646;-113.674;2024-01-07T00:55:30;16.20;;;6.55;;
64686;SDS011;51113;53.646;-113.674;2024-01-07T00:57:59;9.70;;;3.63;;
64686;SDS011;51113;53.646;-113.674;2024-01-07T01:00:28;16.98;;;5.80;;
64686;SDS011;51113;53.646;-113.674;2024-01-07T01:02:57;9.10;;;3.38;;
64686;SDS011;51113;53.646;-113.674;2024-01-07T01:05:26;10.38;;;5.07;;
64686;SDS011;51113;53.646;-113.674;2024-01-07T01:07:55;10.30;;;4.18;;
64686;SDS011;51113;53.646;-113.674;2024-01-07T01:10:24;10.57;;;3.80;;
64686;SDS011;51113;53.646;-113.674;2024-01-07T01:12:53;9.02;;;4.57;;
64686;SDS011;51113;53.646;-113.674;2024-01-07T01:15:22;10.27;;;4.78;;
64686;SDS011;51113;53.646;-113.674;2024-01-07T01:17:50;12.10;;;4.22;;
64686;SDS011;51113;53.646;-113.674;2024-01-07T01:20:18;10.85;;;5.32;;
64686;SDS011;51113;53.646;-113.674;2024-01-07T01:22:46;18.05;;;6.57;;
64686;SDS011;51113;53.646;-113.674;2024-01-07T01:25:16;26.48;;;8.32;;
64686;SDS011;51113;53.646;-113.674;2024-01-07T01:27:46;11.98;;;5.10;;
64686;SDS011;51113;53.646;-113.674;2024-01-07T01:30:15;15.25;;;5.10;;
64686;SDS011;51113;53.646;-113.674;2024-01-07T01:32:44;17.50;;;6.13;;
64686;SDS011;51113;53.646;-113.674;2024-01-07T01:35:13;13.25;;;5.28;;
64686;SDS011;51113;53.646;-113.674;2024-01-07T01:37:42;11.00;;;5.50;;
64686;SDS011;51113;53.646;-113.674;2024-01-07T01:40:11;7.38;;;4.05;;
64686;SDS011;51113;53.646;-113.674;2024-01-07T01:42:42;8.55;;;4.38;;
64686;SDS011;51113;53.646;-113.674;2024-01-07T01:45:12;13.70;;;4.15;;
64686;SDS011;51113;53.646;-113.674;2024-01-07T01:47:40;13.98;;;5.30;;
64686;SDS011;51113;53.646;-113.674;2024-01-07T01:50:10;6.13;;;3.42;;
64686;SDS011;51113;53.646;-113.674;2024-01-07T01:52:40;14.45;;;5.72;;
64686;SDS011;51113;53.646;-113.674;2024-01-07T01:55:10;14.88;;;4.68;;
64686;SDS011;51113;53.646;-113.674;2024-01-07T01:57:39;8.73;;;3.85;;
64686;SDS011;51113;53.646;-113.674;2024-01-07T02:00:09;6.25;;;3.58;;
64686;SDS011;51113;53.646;-113.674;2024-01-07T02:02:38;10.38;;;4.82;;
64686;SDS011;51113;53.646;-113.674;2024-01-07T02:05:10;7.28;;;3.85;;
64686;SDS011;51113;53.646;-113.674;2024-01-07T02:07:41;20.42;;;6.60;;
64686;SDS011;51113;53.646;-113.674;2024-01-07T02:10:10;19.73;;;7.57;;
64686;SDS011;51113;53.646;-113.674;2024-01-07T02:12:40;16.48;;;5.22;;
64686;SDS011;51113;53.646;-113.674;2024-01-07T02:15:09;13.82;;;5.28;;
64686;SDS011;51113;53.646;-113.674;2024-01-07T02:17:38;14.27;;;5.43;;
64686;SDS011;51113;53.646;-113.674;2024-01-07T02:20:06;6.70;;;3.00;;
64686;SDS011;51113;53.646;-113.674;2024-01-07T02:22:35;12.55;;;5.00;;
64686;SDS011;51113;53.646;-113.674;2024-01-07T02:25:04;13.95;;;3.90;;
64686;SDS011;51113;53.646;-113.674;2024-01-07T02:27:34;7.57;;;4.28;;
64686;SDS011;51113;53.646;-113.674;2024-01-07T02:30:04;8.13;;;2.67;;
64686;SDS011;51113;53.646;-113.674;2024-01-07T02:32:34;6.20;;;2.95;;
64686;SDS011;51113;53.646;-113.674;2024-01-07T02:35:05;12.90;;;4.43;;
64686;SDS011;51113;53.646;-113.674;2024-01-07T02:37:34;9.05;;;3.50;;
64686;SDS011;51113;53.646;-113.674;2024-01-07T02:40:03;13.00;;;5.22;;
64686;SDS011;51113;53.646;-113.674;2024-01-07T02:42:32;6.35;;;3.03;;
64686;SDS011;51113;53.646;-113.674;2024-01-07T02:45:02;7.72;;;2.70;;
64686;SDS011;51113;53.646;-113.674;2024-01-07T02:47:30;7.40;;;3.10;;
64686;SDS011;51113;53.646;-113.674;2024-01-07T02:50:00;14.75;;;4.22;;
64686;SDS011;51113;53.646;-113.674;2024-01-07T02:52:28;7.15;;;3.50;;
64686;SDS011;51113;53.646;-113.674;2024-01-07T02:54:58;12.30;;;3.97;;
64686;SDS011;51113;53.646;-113.674;2024-01-07T02:57:29;8.55;;;2.83;;
64686;SDS011;51113;53.646;-113.674;2024-01-07T02:59:58;15.45;;;4.85;;
64686;SDS011;51113;53.646;-113.674;2024-01-07T03:02:27;10.10;;;4.20;;
64686;SDS011;51113;53.646;-113.674;2024-01-07T03:04:55;6.57;;;2.28;;
64686;SDS011;51113;53.646;-113.674;2024-01-07T03:07:24;9.20;;;3.97;;
64686;SDS011;51113;53.646;-113.674;2024-01-07T03:09:53;14.30;;;4.95;;
64686;SDS011;51113;53.646;-113.674;2024-01-07T03:12:22;7.50;;;2.88;;
64686;SDS011;51113;53.646;-113.674;2024-01-07T03:14:51;5.25;;;2.60;;
64686;SDS011;51113;53.646;-113.674;2024-01-07T03:17:19;5.35;;;2.50;;
64686;SDS011;51113;53.646;-113.674;2024-01-07T03:19:49;7.05;;;3.10;;
64686;SDS011;51113;53.646;-113.674;2024-01-07T03:22:18;7.72;;;2.33;;
64686;SDS011;51113;53.646;-113.674;2024-01-07T03:24:47;6.63;;;3.17;;
64686;SDS011;51113;53.646;-113.674;2024-01-07T03:27:16;6.43;;;2.40;;
64686;SDS011;51113;53.646;-113.674;2024-01-07T03:29:44;4.78;;;1.63;;
64686;SDS011;51113;53.646;-113.674;2024-01-07T03:32:13;6.13;;;2.67;;
64686;SDS011;51113;53.646;-113.674;2024-01-07T03:34:42;3.13;;;2.13;;
64686;SDS011;51113;53.646;-113.674;2024-01-07T03:37:11;3.10;;;1.83;;
64686;SDS011;51113;53.646;-113.674;2024-01-07T03:39:39;8.35;;;1.90;;
64686;SDS011;51113;53.646;-113.674;2024-01-07T03:42:08;11.02;;;3.90;;
64686;SDS011;51113;53.646;-113.674;2024-01-07T03:44:39;7.30;;;2.78;;
64686;SDS011;51113;53.646;-113.674;2024-01-07T03:47:08;4.25;;;2.45;;
64686;SDS011;51113;53.646;-113.674;2024-01-07T03:49:37;4.20;;;2.45;;
64686;SDS011;51113;53.646;-113.674;2024-01-07T03:52:07;6.57;;;2.83;;
64686;SDS011;51113;53.646;-113.674;2024-01-07T03:54:37;7.95;;;3.47;;
64686;SDS011;51113;53.646;-113.674;2024-01-07T03:57:06;3.85;;;1.60;;
64686;SDS011;51113;53.646;-113.674;2024-01-07T03:59:35;4.05;;;1.98;;
64686;SDS011;51113;53.646;-113.674;2024-01-07T04:02:03;5.53;;;2.92;;
64686;SDS011;51113;53.646;-113.674;2024-01-07T04:04:32;4.50;;;2.33;;
64686;SDS011;51113;53.646;-113.674;2024-01-07T04:07:00;11.15;;;3.90;;
64686;SDS011;51113;53.646;-113.674;2024-01-07T04:09:29;6.50;;;2.88;;
64686;SDS011;51113;53.646;-113.674;2024-01-07T04:11:58;4.63;;;2.28;;
64686;SDS011;51113;53.646;-113.674;2024-01-07T04:14:27;7.85;;;2.92;;
64686;SDS011;51113;53.646;-113.674;2024-01-07T04:16:56;6.93;;;2.70;;
64686;SDS011;51113;53.646;-113.674;2024-01-07T04:19:24;5.85;;;2.15;;
64686;SDS011;51113;53.646;-113.674;2024-01-07T04:21:53;4.00;;;1.73;;
64686;SDS011;51113;53.646;-113.674;2024-01-07T04:24:22;3.15;;;2.15;;
64686;SDS011;51113;53.646;-113.674;2024-01-07T04:26:51;2.95;;;1.73;;
64686;SDS011;51113;53.646;-113.674;2024-01-07T04:29:20;3.15;;;1.42;;
64686;SDS011;51113;53.646;-113.674;2024-01-07T04:31:48;5.60;;;2.03;;
64686;SDS011;51113;53.646;-113.674;2024-01-07T04:34:17;4.80;;;2.22;;
64686;SDS011;51113;53.646;-113.674;2024-01-07T04:36:46;0.88;;;0.88;;
64686;SDS011;51113;53.646;-113.674;2024-01-07T04:39:15;3.03;;;2.67;;
64686;SDS011;51113;53.646;-113.674;2024-01-07T04:41:45;3.28;;;1.75;;
64686;SDS011;51113;53.646;-113.674;2024-01-07T04:44:14;3.72;;;1.88;;
64686;SDS011;51113;53.646;-113.674;2024-01-07T04:46:42;1.55;;;1.20;;
64686;SDS011;51113;53.646;-113.674;2024-01-07T04:49:11;2.63;;;1.52;;
64686;SDS011;51113;53.646;-113.674;2024-01-07T04:51:40;1.23;;;1.13;;
64686;SDS011;51113;53.646;-113.674;2024-01-07T04:54:09;5.03;;;2.05;;
64686;SDS011;51113;53.646;-113.674;2024-01-07T04:56:38;11.30;;;2.75;;
64686;SDS011;51113;53.646;-113.674;2024-01-07T04:59:06;6.05;;;2.22;;
64686;SDS011;51113;53.646;-113.674;2024-01-07T05:01:35;9.80;;;3.15;;
64686;SDS011;51113;53.646;-113.674;2024-01-07T05:04:04;5.22;;;2.08;;
64686;SDS011;51113;53.646;-113.674;2024-01-07T05:06:33;2.38;;;1.55;;
64686;SDS011;51113;53.646;-113.674;2024-01-07T05:09:03;7.03;;;1.95;;
64686;SDS011;51113;53.646;-113.674;2024-01-07T05:11:32;3.65;;;1.73;;
64686;SDS011;51113;53.646;-113.674;2024-01-07T05:14:01;4.47;;;2.55;;
64686;SDS011;51113;53.646;-113.674;2024-01-07T05:16:31;8.32;;;2.88;;
64686;SDS011;51113;53.646;-113.674;2024-01-07T05:19:00;6.13;;;2.75;;
64686;SDS011;51113;53.646;-113.674;2024-01-07T05:21:29;7.72;;;3.33;;
64686;SDS011;51113;53.646;-113.674;2024-01-07T05:23:58;6.95;;;2.08;;
64686;SDS011;51113;53.646;-113.674;2024-01-07T05:26:27;5.03;;;2.15;;
64686;SDS011;51113;53.646;-113.674;2024-01-07T05:28:55;26.73;;;2.50;;
64686;SDS011;51113;53.646;-113.674;2024-01-07T05:31:24;1.63;;;1.25;;
64686;SDS011;51113;53.646;-113.674;2024-01-07T05:33:53;7.53;;;3.33;;
64686;SDS011;51113;53.646;-113.674;2024-01-07T05:36:22;2.75;;;1.52;;
64686;SDS011;51113;53.646;-113.674;2024-01-07T05:38:51;8.02;;;2.45;;
64686;SDS011;51113;53.646;-113.674;2024-01-07T05:41:20;14.98;;;3.17;;
64686;SDS011;51113;53.646;-113.674;2024-01-07T05:43:48;4.05;;;2.17;;
64686;SDS011;51113;53.646;-113.674;2024-01-07T05:46:19;10.48;;;2.90;;
64686;SDS011;51113;53.646;-113.674;2024-01-07T05:48:48;5.57;;;2.33;;
64686;SDS011;51113;53.646;-113.674;2024-01-07T05:51:17;3.17;;;1.80;;
64686;SDS011;51113;53.646;-113.674;2024-01-07T05:53:46;5.65;;;2.53;;
64686;SDS011;51113;53.646;-113.674;2024-01-07T05:56:15;3.63;;;2.20;;
64686;SDS011;51113;53.646;-113.674;2024-01-07T05:58:43;7.47;;;2.53;;
64686;SDS011;51113;53.646;-113.674;2024-01-07T06:01:17;6.63;;;2.65;;
64686;SDS011;51113;53.646;-113.674;2024-01-07T06:03:50;5.47;;;2.55;;
64686;SDS011;51113;53.646;-113.674;2024-01-07T06:06:19;3.05;;;2.03;;
64686;SDS011;51113;53.646;-113.674;2024-01-07T06:08:47;5.35;;;2.72;;
64686;SDS011;51113;53.646;-113.674;2024-01-07T06:11:17;7.75;;;2.30;;
64686;SDS011;51113;53.646;-113.674;2024-01-07T06:13:48;5.38;;;2.35;;
64686;SDS011;51113;53.646;-113.674;2024-01-07T06:16:19;3.55;;;1.25;;
64686;SDS011;51113;53.646;-113.674;2024-01-07T06:18:48;6.88;;;2.42;;
64686;SDS011;51113;53.646;-113.674;2024-01-07T06:21:17;3.88;;;2.15;;
64686;SDS011;51113;53.646;-113.674;2024-01-07T06:23:45;1.65;;;1.25;;
64686;SDS011;51113;53.646;-113.674;2024-01-07T06:26:14;1.58;;;1.10;;
64686;SDS011;51113;53.646;-113.674;2024-01-07T06:28:44;6.53;;;2.90;;
64686;SDS011;51113;53.646;-113.674;2024-01-07T06:31:12;1.52;;;1.42;;
64686;SDS011;51113;53.646;-113.674;2024-01-07T06:33:41;0.90;;;0.90;;
64686;SDS011;51113;53.646;-113.674;2024-01-07T06:36:11;4.43;;;1.77;;
64686;SDS011;51113;53.646;-113.674;2024-01-07T06:38:39;5.50;;;1.50;;
64686;SDS011;51113;53.646;-113.674;2024-01-07T06:41:11;4.28;;;2.30;;
64686;SDS011;51113;53.646;-113.674;2024-01-07T06:43:40;4.28;;;2.15;;
64686;SDS011;51113;53.646;-113.674;2024-01-07T06:46:09;6.40;;;2.10;;
64686;SDS011;51113;53.646;-113.674;2024-01-07T06:48:38;5.22;;;1.33;;
64686;SDS011;51113;53.646;-113.674;2024-01-07T06:51:14;2.58;;;1.50;;
64686;SDS011;51113;53.646;-113.674;2024-01-07T06:53:43;11.68;;;2.05;;
64686;SDS011;51113;53.646;-113.674;2024-01-07T06:56:12;7.63;;;1.92;;
64686;SDS011;51113;53.646;-113.674;2024-01-07T06:58:42;1.58;;;1.02;;
64686;SDS011;51113;53.646;-113.674;2024-01-07T07:01:12;14.85;;;2.45;;
64686;SDS011;51113;53.646;-113.674;2024-01-07T07:03:41;4.75;;;2.42;;
64686;SDS011;51113;53.646;-113.674;2024-01-07T07:06:09;1.58;;;1.17;;
64686;SDS011;51113;53.646;-113.674;2024-01-07T07:08:39;3.03;;;1.65;;
64686;SDS011;51113;53.646;-113.674;2024-01-07T07:11:08;6.28;;;1.92;;
64686;SDS011;51113;53.646;-113.674;2024-01-07T07:13:37;2.20;;;1.00;;
64686;SDS011;51113;53.646;-113.674;2024-01-07T07:16:06;3.75;;;1.88;;
64686;SDS011;51113;53.646;-113.674;2024-01-07T07:18:35;4.10;;;1.60;;
64686;SDS011;51113;53.646;-113.674;2024-01-07T07:21:04;3.78;;;1.75;;
64686;SDS011;51113;53.646;-113.674;2024-01-07T07:23:33;2.95;;;1.55;;
64686;SDS011;51113;53.646;-113.674;2024-01-07T07:26:02;4.40;;;2.22;;
64686;SDS011;51113;53.646;-113.674;2024-01-07T07:28:30;4.85;;;2.05;;
64686;SDS011;51113;53.646;-113.674;2024-01-07T07:30:59;5.75;;;1.80;;
64686;SDS011;51113;53.646;-113.674;2024-01-07T07:33:29;3.40;;;1.55;;
64686;SDS011;51113;53.646;-113.674;2024-01-07T07:35:58;3.80;;;1.63;;
64686;SDS011;51113;53.646;-113.674;2024-01-07T07:38:27;4.93;;;2.35;;
64686;SDS011;51113;53.646;-113.674;2024-01-07T07:40:55;2.10;;;1.38;;
64686;SDS011;51113;53.646;-113.674;2024-01-07T07:43:24;1.85;;;1.70;;
64686;SDS011;51113;53.646;-113.674;2024-01-07T07:45:54;1.42;;;1.25;;
64686;SDS011;51113;53.646;-113.674;2024-01-07T07:48:23;2.75;;;1.20;;
64686;SDS011;51113;53.646;-113.674;2024-01-07T07:50:53;3.22;;;1.67;;
64686;SDS011;51113;53.646;-113.674;2024-01-07T07:53:22;2.85;;;1.92;;
64686;SDS011;51113;53.646;-113.674;2024-01-07T07:55:50;4.50;;;1.60;;
64686;SDS011;51113;53.646;-113.674;2024-01-07T07:58:19;8.77;;;2.00;;
64686;SDS011;51113;53.646;-113.674;2024-01-07T08:00:48;3.60;;;1.25;;
64686;SDS011;51113;53.646;-113.674;2024-01-07T08:03:17;2.78;;;1.42;;
64686;SDS011;51113;53.646;-113.674;2024-01-07T08:05:49;3.30;;;2.25;;
64686;SDS011;51113;53.646;-113.674;2024-01-07T08:08:18;5.38;;;1.98;;
64686;SDS011;51113;53.646;-113.674;2024-01-07T08:10:47;9.50;;;2.97;;
64686;SDS011;51113;53.646;-113.674;2024-01-07T08:13:16;2.85;;;1.33;;
64686;SDS011;51113;53.646;-113.674;2024-01-07T08:15:45;5.57;;;1.65;;
64686;SDS011;51113;53.646;-113.674;2024-01-07T08:18:14;2.55;;;0.98;;
64686;SDS011;51113;53.646;-113.674;2024-01-07T08:20:43;5.88;;;1.60;;
64686;SDS011;51113;53.646;-113.674;2024-01-07T08:23:12;2.80;;;1.50;;
64686;SDS011;51113;53.646;-113.674;2024-01-07T08:25:41;2.58;;;1.83;;
64686;SDS011;51113;53.646;-113.674;2024-01-07T08:28:10;1.85;;;1.52;;
64686;SDS011;51113;53.646;-113.674;2024-01-07T08:30:39;1.10;;;1.00;;
64686;SDS011;51113;53.646;-113.674;2024-01-07T08:33:08;3.45;;;2.03;;
64686;SDS011;51113;53.646;-113.674;2024-01-07T08:35:36;4.45;;;1.63;;
64686;SDS011;51113;53.646;-113.674;2024-01-07T08:38:05;6.68;;;2.08;;
64686;SDS011;51113;53.646;-113.674;2024-01-07T08:40:34;3.58;;;1.83;;
64686;SDS011;51113;53.646;-113.674;2024-01-07T08:43:04;2.10;;;1.33;;
64686;SDS011;51113;53.646;-113.674;2024-01-07T08:45:32;3.45;;;1.95;;
64686;SDS011;51113;53.646;-113.674;2024-01-07T08:48:02;2.67;;;1.08;;
64686;SDS011;51113;53.646;-113.674;2024-01-07T08:50:31;2.65;;;1.67;;
64686;SDS011;51113;53.646;-113.674;2024-01-07T08:53:00;0.68;;;0.52;;
64686;SDS011;51113;53.646;-113.674;2024-01-07T08:55:31;2.58;;;1.38;;
64686;SDS011;51113;53.646;-113.674;2024-01-07T08:58:01;4.65;;;1.63;;
64686;SDS011;51113;53.646;-113.674;2024-01-07T09:00:30;3.60;;;1.92;;
64686;SDS011;51113;53.646;-113.674;2024-01-07T09:02:59;4.20;;;2.20;;
64686;SDS011;51113;53.646;-113.674;2024-01-07T09:05:28;3.38;;;1.30;;
64686;SDS011;51113;53.646;-113.674;2024-01-07T09:07:57;1.63;;;1.17;;
64686;SDS011;51113;53.646;-113.674;2024-01-07T09:10:30;6.45;;;2.17;;
64686;SDS011;51113;53.646;-113.674;2024-01-07T09:12:59;2.10;;;1.65;;
64686;SDS011;51113;53.646;-113.674;2024-01-07T09:15:28;3.97;;;1.83;;
64686;SDS011;51113;53.646;-113.674;2024-01-07T09:17:57;5.40;;;1.67;;
64686;SDS011;51113;53.646;-113.674;2024-01-07T09:20:27;3.10;;;1.60;;
64686;SDS011;51113;53.646;-113.674;2024-01-07T09:22:56;2.97;;;1.77;;
64686;SDS011;51113;53.646;-113.674;2024-01-07T09:25:26;1.08;;;0.90;;
64686;SDS011;51113;53.646;-113.674;2024-01-07T09:27:55;3.53;;;1.38;;
64686;SDS011;51113;53.646;-113.674;2024-01-07T09:30:24;3.15;;;1.60;;
64686;SDS011;51113;53.646;-113.674;2024-01-07T09:32:54;3.67;;;1.52;;
64686;SDS011;51113;53.646;-113.674;2024-01-07T09:35:22;5.78;;;2.53;;
64686;SDS011;51113;53.646;-113.674;2024-01-07T09:37:51;2.65;;;1.50;;
64686;SDS011;51113;53.646;-113.674;2024-01-07T09:40:20;4.60;;;1.50;;
64686;SDS011;51113;53.646;-113.674;2024-01-07T09:42:49;4.15;;;1.75;;
64686;SDS011;51113;53.646;-113.674;2024-01-07T09:45:18;3.40;;;1.83;;
64686;SDS011;51113;53.646;-113.674;2024-01-07T09:47:49;2.63;;;1.27;;
64686;SDS011;51113;53.646;-113.674;2024-01-07T09:50:19;2.55;;;0.98;;
64686;SDS011;51113;53.646;-113.674;2024-01-07T09:52:49;5.18;;;2.13;;
64686;SDS011;51113;53.646;-113.674;2024-01-07T09:55:36;4.20;;;1.90;;
64686;SDS011;51113;53.646;-113.674;2024-01-07T09:58:13;1.75;;;1.10;;
64686;SDS011;51113;53.646;-113.674;2024-01-07T10:00:42;6.93;;;2.28;;
64686;SDS011;51113;53.646;-113.674;2024-01-07T10:03:11;2.45;;;1.08;;
64686;SDS011;51113;53.646;-113.674;2024-01-07T10:05:40;2.65;;;1.27;;
64686;SDS011;51113;53.646;-113.674;2024-01-07T10:08:09;3.25;;;1.08;;
64686;SDS011;51113;53.646;-113.674;2024-01-07T10:10:37;1.90;;;1.25;;
64686;SDS011;51113;53.646;-113.674;2024-01-07T10:13:08;1.90;;;1.35;;
64686;SDS011;51113;53.646;-113.674;2024-01-07T10:15:37;1.55;;;1.38;;
64686;SDS011;51113;53.646;-113.674;2024-01-07T10:18:06;1.42;;;1.10;;
64686;SDS011;51113;53.646;-113.674;2024-01-07T10:20:36;1.27;;;0.95;;
64686;SDS011;51113;53.646;-113.674;2024-01-07T10:23:09;0.80;;;0.63;;
64686;SDS011;51113;53.646;-113.674;2024-01-07T10:25:39;0.90;;;0.80;;
64686;SDS011;51113;53.646;-113.674;2024-01-07T10:28:08;3.65;;;1.73;;
64686;SDS011;51113;53.646;-113.674;2024-01-07T10:30:38;0.40;;;0.40;;
64686;SDS011;51113;53.646;-113.674;2024-01-07T10:33:08;2.33;;;1.52;;
64686;SDS011;51113;53.646;-113.674;2024-01-07T10:35:37;5.53;;;1.52;;
64686;SDS011;51113;53.646;-113.674;2024-01-07T10:38:08;5.35;;;3.17;;
64686;SDS011;51113;53.646;-113.674;2024-01-07T10:40:37;1.98;;;1.17;;
64686;SDS011;51113;53.646;-113.674;2024-01-07T10:43:08;3.25;;;1.80;;
64686;SDS011;51113;53.646;-113.674;2024-01-07T10:45:37;3.15;;;1.45;;
64686;SDS011;51113;53.646;-113.674;2024-01-07T10:48:06;2.78;;;1.83;;
64686;SDS011;51113;53.646;-113.674;2024-01-07T10:50:38;1.10;;;1.00;;
64686;SDS011;51113;53.646;-113.674;2024-01-07T10:53:08;2.83;;;1.38;;
64686;SDS011;51113;53.646;-113.674;2024-01-07T10:55:43;2.80;;;1.70;;
64686;SDS011;51113;53.646;-113.674;2024-01-07T10:58:24;2.42;;;1.25;;
64686;SDS011;51113;53.646;-113.674;2024-01-07T11:00:54;2.20;;;1.00;;
64686;SDS011;51113;53.646;-113.674;2024-01-07T11:03:45;1.98;;;1.35;;
64686;SDS011;51113;53.646;-113.674;2024-01-07T11:06:26;3.15;;;1.52;;
64686;SDS011;51113;53.646;-113.674;2024-01-07T11:09:21;1.75;;;1.13;;
64686;SDS011;51113;53.646;-113.674;2024-01-07T11:11:57;3.20;;;1.48;;
64686;SDS011;51113;53.646;-113.674;2024-01-07T11:14:40;4.20;;;1.40;;
64686;SDS011;51113;53.646;-113.674;2024-01-07T11:17:13;0.63;;;0.63;;
64686;SDS011;51113;53.646;-113.674;2024-01-07T11:19:51;4.90;;;1.02;;
64686;SDS011;51113;53.646;-113.674;2024-01-07T11:22:27;5.38;;;1.70;;
64686;SDS011;51113;53.646;-113.674;2024-01-07T11:24:57;4.20;;;0.80;;
64686;SDS011;51113;53.646;-113.674;2024-01-07T11:27:30;3.53;;;1.50;;
64686;SDS011;51113;53.646;-113.674;2024-01-07T11:30:03;6.78;;;1.85;;
64686;SDS011;51113;53.646;-113.674;2024-01-07T11:32:33;1.40;;;1.00;;
64686;SDS011;51113;53.646;-113.674;2024-01-07T11:35:03;2.45;;;1.25;;
64686;SDS011;51113;53.646;-113.674;2024-01-07T11:37:32;1.30;;;1.00;;
64686;SDS011;51113;53.646;-113.674;2024-01-07T11:40:06;2.58;;;1.20;;
64686;SDS011;51113;53.646;-113.674;2024-01-07T11:42:36;1.77;;;1.15;;
64686;SDS011;51113;53.646;-113.674;2024-01-07T11:45:05;1.17;;;1.02;;
64686;SDS011;51113;53.646;-113.674;2024-01-07T11:47:34;4.63;;;1.73;;
64686;SDS011;51113;53.646;-113.674;2024-01-07T11:50:03;4.82;;;1.42;;
64686;SDS011;51113;53.646;-113.674;2024-01-07T11:52:34;5.78;;;1.95;;
64686;SDS011;51113;53.646;-113.674;2024-01-07T11:55:04;6.45;;;2.35;;
64686;SDS011;51113;53.646;-113.674;2024-01-07T11:57:33;1.38;;;1.20;;
64686;SDS011;51113;53.646;-113.674;2024-01-07T12:00:03;2.03;;;1.00;;
64686;SDS011;51113;53.646;-113.674;2024-01-07T12:02:32;1.85;;;1.10;;
64686;SDS011;51113;53.646;-113.674;2024-01-07T12:05:01;0.57;;;0.57;;
64686;SDS011;51113;53.646;-113.674;2024-01-07T12:07:30;4.50;;;1.30;;
64686;SDS011;51113;53.646;-113.674;2024-01-07T12:09:59;2.33;;;1.33;;
64686;SDS011;51113;53.646;-113.674;2024-01-07T12:12:27;1.30;;;1.17;;
64686;SDS011;51113;53.646;-113.674;2024-01-07T12:14:56;2.25;;;1.35;;
64686;SDS011;51113;53.646;-113.674;2024-01-07T12:17:26;1.60;;;1.02;;
64686;SDS011;51113;53.646;-113.674;2024-01-07T12:19:56;3.63;;;1.65;;
64686;SDS011;51113;53.646;-113.674;2024-01-07T12:22:26;2.88;;;1.27;;
64686;SDS011;51113;53.646;-113.674;2024-01-07T12:25:01;2.90;;;1.08;;
64686;SDS011;51113;53.646;-113.674;2024-01-07T12:27:31;1.38;;;1.25;;
64686;SDS011;51113;53.646;-113.674;2024-01-07T12:30:02;0.98;;;0.82;;
64686;SDS011;51113;53.646;-113.674;2024-01-07T12:32:32;1.48;;;0.77;;
64686;SDS011;51113;53.646;-113.674;2024-01-07T12:35:01;1.85;;;1.20;;
64686;SDS011;51113;53.646;-113.674;2024-01-07T12:37:37;4.07;;;1.90;;
64686;SDS011;51113;53.646;-113.674;2024-01-07T12:40:06;1.20;;;1.05;;
64686;SDS011;51113;53.646;-113.674;2024-01-07T12:42:38;2.17;;;1.30;;
64686;SDS011;51113;53.646;-113.674;2024-01-07T12:45:13;0.63;;;0.63;;
64686;SDS011;51113;53.646;-113.674;2024-01-07T12:47:43;2.83;;;1.30;;
64686;SDS011;51113;53.646;-113.674;2024-01-07T12:50:11;3.55;;;1.33;;
64686;SDS011;51113;53.646;-113.674;2024-01-07T12:52:41;3.10;;;1.50;;
64686;SDS011;51113;53.646;-113.674;2024-01-07T12:55:09;1.40;;;0.98;;
64686;SDS011;51113;53.646;-113.674;2024-01-07T12:57:38;2.03;;;0.82;;
64686;SDS011;51113;53.646;-113.674;2024-01-07T13:00:07;5.22;;;1.25;;
64686;SDS011;51113;53.646;-113.674;2024-01-07T13:02:36;3.10;;;1.27;;
64686;SDS011;51113;53.646;-113.674;2024-01-07T13:05:06;0.77;;;0.77;;
64686;SDS011;51113;53.646;-113.674;2024-01-07T13:07:36;0.80;;;0.77;;
64686;SDS011;51113;53.646;-113.674;2024-01-07T13:10:05;0.88;;;0.88;;
64686;SDS011;51113;53.646;-113.674;2024-01-07T13:12:34;1.08;;;0.82;;
64686;SDS011;51113;53.646;-113.674;2024-01-07T13:15:14;1.15;;;1.02;;
64686;SDS011;51113;53.646;-113.674;2024-01-07T13:17:44;1.67;;;1.23;;
64686;SDS011;51113;53.646;-113.674;2024-01-07T13:20:13;0.60;;;0.60;;
64686;SDS011;51113;53.646;-113.674;2024-01-07T13:22:41;0.70;;;0.70;;
64686;SDS011;51113;53.646;-113.674;2024-01-07T13:25:11;0.70;;;0.70;;
64686;SDS011;51113;53.646;-113.674;2024-01-07T13:27:40;1.15;;;0.95;;
64686;SDS011;51113;53.646;-113.674;2024-01-07T13:30:10;1.33;;;0.95;;
64686;SDS011;51113;53.646;-113.674;2024-01-07T13:32:39;1.38;;;0.75;;
64686;SDS011;51113;53.646;-113.674;2024-01-07T13:35:08;0.75;;;0.60;;
64686;SDS011;51113;53.646;-113.674;2024-01-07T13:37:38;2.78;;;1.80;;
64686;SDS011;51113;53.646;-113.674;2024-01-07T13:40:10;0.80;;;0.80;;
64686;SDS011;51113;53.646;-113.674;2024-01-07T13:42:40;2.83;;;0.80;;
64686;SDS011;51113;53.646;-113.674;2024-01-07T13:45:09;2.20;;;1.45;;
64686;SDS011;51113;53.646;-113.674;2024-01-07T13:47:38;1.27;;;0.82;;
64686;SDS011;51113;53.646;-113.674;2024-01-07T13:50:07;4.90;;;1.60;;
64686;SDS011;51113;53.646;-113.674;2024-01-07T13:52:37;0.47;;;0.47;;
64686;SDS011;51113;53.646;-113.674;2024-01-07T13:55:06;0.50;;;0.50;;
64686;SDS011;51113;53.646;-113.674;2024-01-07T13:57:37;0.80;;;0.80;;
64686;SDS011;51113;53.646;-113.674;2024-01-07T14:00:06;0.60;;;0.60;;
64686;SDS011;51113;53.646;-113.674;2024-01-07T14:02:37;1.48;;;1.15;;
64686;SDS011;51113;53.646;-113.674;2024-01-07T14:05:07;4.30;;;1.08;;
64686;SDS011;51113;53.646;-113.674;2024-01-07T14:07:38;1.00;;;1.00;;
64686;SDS011;51113;53.646;-113.674;2024-01-07T14:10:07;0.50;;;0.50;;
64686;SDS011;51113;53.646;-113.674;2024-01-07T14:12:36;0.40;;;0.40;;
64686;SDS011;51113;53.646;-113.674;2024-01-07T14:15:05;0.70;;;0.70;;
64686;SDS011;51113;53.646;-113.674;2024-01-07T14:17:36;0.50;;;0.50;;
64686;SDS011;51113;53.646;-113.674;2024-01-07T14:20:07;1.23;;;1.13;;